| time (UTC) | temp C | wind direction | speed KPH | gust KPH | rain 1hr cm | rain 24hr cm | rain mn cm | humidity % | barometer mb |
| 20260507063107 | 10 | 0.0 | 0.0 | 0.03 | 0.69 | 0.08 | 48 | 1009.2 | |
| 20260507062546 | 10 | 0.0 | 0.0 | 0.03 | 0.69 | 0.08 | 48 | 1009.0 | |
| 20260507062026 | 10 | 0.0 | 0.0 | 0.03 | 0.69 | 0.08 | 48 | 1009.0 | |
| 20260507061526 | 10 | 0.0 | 0.0 | 0.03 | 0.69 | 0.08 | 48 | 1008.8 | |
| 20260507061026 | 10 | 0.0 | 0.0 | 0.03 | 0.69 | 0.08 | 48 | 1008.9 | |
| 20260507060526 | 10 | 0.0 | 0.0 | 0.00 | 0.66 | 0.05 | 48 | 1009.0 | |
| 20260507060026 | 10 | 0.0 | 0.0 | 0.00 | 0.66 | 0.05 | 48 | 1009.1 | |
| 20260507055526 | 10 | 0.0 | 0.0 | 0.00 | 0.66 | 0.05 | 48 | 1009.4 | |
| 20260507055047 | 10 | 0.0 | 0.0 | 0.00 | 0.66 | 0.05 | 48 | 1009.3 | |
| 20260507054607 | 10 | 0.0 | 0.0 | 0.00 | 0.66 | 0.05 | 48 | 1009.5 | |
| 20260507054026 | 10 | 0.0 | 0.0 | 0.03 | 0.66 | 0.05 | 48 | 1009.5 | |
| 20260507053526 | 10 | 0.0 | 0.0 | 0.03 | 0.66 | 0.05 | 48 | 1009.6 | |
| 20260507053026 | 10 | 0.0 | 0.0 | 0.03 | 0.66 | 0.05 | 47 | 1009.8 | |
| 20260507052527 | 10 | 0.0 | 0.0 | 0.03 | 0.66 | 0.05 | 47 | 1009.4 | |
| 20260507052046 | 10 | 0.0 | 0.0 | 0.03 | 0.66 | 0.05 | 47 | 1009.6 | |
| 20260507051526 | 10 | 0.0 | 0.0 | 0.03 | 0.66 | 0.05 | 47 | 1009.6 | |
| 20260507051026 | 10 | 0.0 | 0.0 | 0.03 | 0.66 | 0.05 | 47 | 1009.7 | |
| 20260507050526 | 10 | 0.0 | 0.0 | 0.03 | 0.66 | 0.05 | 47 | 1010.1 | |
| 20260507050026 | 10 | 0.0 | 0.0 | 0.05 | 0.66 | 0.05 | 47 | 1010.1 | |
| 20260507045526 | 10 | 0.0 | 0.0 | 0.05 | 0.66 | 0.05 | 47 | 1010.1 | |
| 20260507045026 | 10 | 0.0 | 0.0 | 0.05 | 0.66 | 0.05 | 47 | 1009.8 | |
| 20260507044526 | 10 | 0.0 | 0.0 | 0.05 | 0.66 | 0.05 | 47 | 1010.0 | |
| 20260507044026 | 10 | 0.0 | 0.0 | 0.03 | 0.64 | 0.03 | 47 | 1009.8 | |
| 20260507043526 | 10 | 0.0 | 0.0 | 0.05 | 0.64 | 0.03 | 47 | 1009.9 | |
| 20260507043046 | 10 | 0.0 | 0.0 | 0.05 | 0.64 | 0.03 | 47 | 1009.9 | |
| 20260507042527 | 10 | 0.0 | 0.0 | 0.05 | 0.64 | 0.03 | 47 | 1009.8 | |
| 20260507042026 | 10 | 0.0 | 0.0 | 0.08 | 0.64 | 0.03 | 47 | 1009.8 | |
| 20260507041526 | 10 | 0.0 | 0.0 | 0.08 | 0.64 | 0.03 | 47 | 1009.7 | |
| 20260507041026 | 10 | 0.0 | 0.0 | 0.08 | 0.64 | 0.03 | 47 | 1009.8 | |
| 20260507040526 | 10 | 0.0 | 0.0 | 0.10 | 0.64 | 0.03 | 47 | 1009.7 | |
| 20260507040027 | 10 | 0.0 | 0.0 | 0.08 | 0.61 | 0.61 | 47 | 1009.6 | |
| 20260507035546 | 10 | 0.0 | 0.0 | 0.08 | 0.61 | 0.61 | 47 | 1009.6 | |
| 20260507035026 | 10 | 0.0 | 0.0 | 0.10 | 0.61 | 0.61 | 47 | 1009.7 | |
| 20260507034526 | 11 | 0.0 | 0.0 | 0.10 | 0.61 | 0.61 | 47 | 1009.8 | |
| 20260507034026 | 11 | 0.0 | 0.0 | 0.10 | 0.61 | 0.61 | 46 | 1009.7 | |
| 20260507033526 | 11 | 0.0 | 0.0 | 0.10 | 0.58 | 0.58 | 46 | 1009.8 | |
| 20260507033026 | 11 | 0.0 | 1.6 | 0.10 | 0.58 | 0.58 | 46 | 1010.0 | |
| 20260507032526 | 11 | 350 | 1.6 | 4.8 | 0.10 | 0.58 | 0.58 | 46 | 1009.9 |
| 20260507032027 | 11 | 351 | 1.6 | 6.4 | 0.08 | 0.56 | 0.56 | 46 | 1009.8 |
| 20260507031526 | 11 | 352 | 3.2 | 8.0 | 0.08 | 0.56 | 0.56 | 46 | 1009.8 |
| 20260507031026 | 11 | 348 | 3.2 | 9.7 | 0.08 | 0.56 | 0.56 | 46 | 1009.6 |
| 20260507030526 | 11 | 349 | 6.4 | 14.5 | 0.05 | 0.53 | 0.53 | 45 | 1009.8 |
| 20260507030046 | 11 | 346 | 8.0 | 17.7 | 0.05 | 0.53 | 0.53 | 46 | 1009.6 |
| 20260507025526 | 12 | 349 | 6.4 | 12.9 | 0.05 | 0.53 | 0.53 | 46 | 1009.5 |
| 20260507025026 | 12 | 333 | 1.6 | 4.8 | 0.03 | 0.51 | 0.51 | 46 | 1009.4 |
| 20260507024526 | 12 | 0.0 | 1.6 | 0.03 | 0.51 | 0.51 | 46 | 1009.5 | |
| 20260507024026 | 12 | 0.0 | 0.0 | 0.03 | 0.51 | 0.51 | 46 | 1009.2 | |
| 20260507023526 | 12 | 0.0 | 0.0 | 0.00 | 0.48 | 0.48 | 47 | 1009.3 | |
| 20260507023026 | 12 | 0.0 | 1.6 | 0.03 | 0.48 | 0.48 | 46 | 1009.3 | |
| 20260507022547 | 12 | 0.0 | 1.6 | 0.03 | 0.48 | 0.48 | 46 | 1009.1 | |
| 20260507022026 | 13 | 0.0 | 1.6 | 0.03 | 0.48 | 0.48 | 46 | 1009.0 | |
| 20260507021526 | 13 | 327 | 1.6 | 4.8 | 0.03 | 0.48 | 0.48 | 46 | 1008.9 |
| 20260507021026 | 13 | 0.0 | 1.6 | 0.03 | 0.48 | 0.48 | 46 | 1008.9 | |
| 20260507020526 | 13 | 347 | 3.2 | 8.0 | 0.03 | 0.48 | 0.48 | 46 | 1008.6 |
| 20260507020026 | 13 | 355 | 1.6 | 6.4 | 0.03 | 0.48 | 0.48 | 46 | 1008.7 |
| 20260507015526 | 13 | 340 | 1.6 | 6.4 | 0.03 | 0.48 | 0.48 | 46 | 1008.9 |
| 20260507015026 | 13 | 333 | 1.6 | 4.8 | 0.03 | 0.48 | 0.48 | 46 | 1008.9 |
| 20260507014526 | 14 | 0.0 | 3.2 | 0.03 | 0.48 | 0.48 | 46 | 1008.9 | |
| 20260507014026 | 14 | 0.0 | 3.2 | 0.03 | 0.48 | 0.48 | 46 | 1008.7 | |
| 20260507013526 | 14 | 0.0 | 3.2 | 0.03 | 0.48 | 0.48 | 46 | 1008.7 | |
| 20260507013026 | 14 | 14 | 1.6 | 4.8 | 0.00 | 0.46 | 0.46 | 47 | 1008.6 |
| 20260507012526 | 14 | 108 | 3.2 | 6.4 | 0.00 | 0.46 | 0.46 | 47 | 1008.5 |
| 20260507012026 | 14 | 223 | 1.6 | 6.4 | 0.00 | 0.46 | 0.46 | 47 | 1008.3 |
| 20260507011526 | 14 | 91 | 1.6 | 11.3 | 0.00 | 0.46 | 0.46 | 47 | 1008.3 |
| 20260507011026 | 14 | 210 | 1.6 | 4.8 | 0.00 | 0.46 | 0.46 | 47 | 1008.1 |
| 20260507010526 | 14 | 194 | 1.6 | 6.4 | 0.00 | 0.46 | 0.46 | 47 | 1008.0 |
| 20260507010026 | 14 | 183 | 1.6 | 6.4 | 0.00 | 0.46 | 0.46 | 47 | 1008.0 |
| 20260507005526 | 14 | 143 | 1.6 | 6.4 | 0.00 | 0.46 | 0.46 | 47 | 1008.1 |
| 20260507005026 | 14 | 191 | 1.6 | 8.0 | 0.00 | 0.46 | 0.46 | 47 | 1008.0 |
| 20260507004525 | 14 | 162 | 1.6 | 4.8 | 0.00 | 0.46 | 0.46 | 46 | 1007.8 |
| 20260507004026 | 14 | 0.0 | 3.2 | 0.00 | 0.46 | 0.46 | 47 | 1007.9 | |
| 20260507003546 | 14 | 172 | 3.2 | 9.7 | 0.00 | 0.46 | 0.46 | 47 | 1007.9 |
| 20260507003026 | 14 | 191 | 3.2 | 4.8 | 0.00 | 0.46 | 0.46 | 47 | 1007.9 |
| 20260507002526 | 14 | 184 | 3.2 | 8.0 | 0.00 | 0.46 | 0.46 | 47 | 1007.9 |
| 20260507002026 | 14 | 216 | 3.2 | 4.8 | 0.00 | 0.46 | 0.46 | 47 | 1007.8 |
| 20260507001526 | 14 | 202 | 1.6 | 6.4 | 0.00 | 0.46 | 0.46 | 47 | 1007.8 |
| 20260507001046 | 14 | 154 | 3.2 | 8.0 | 0.00 | 0.46 | 0.46 | 46 | 1007.7 |
| 20260507000526 | 14 | 238 | 1.6 | 6.4 | 0.00 | 0.46 | 0.46 | 46 | 1007.8 |
| 20260507000026 | 14 | 0.0 | 3.2 | 0.00 | 0.46 | 0.46 | 46 | 1007.6 | |
| 20260506235526 | 14 | 191 | 1.6 | 6.4 | 0.00 | 0.46 | 0.46 | 46 | 1007.6 |
| 20260506235026 | 14 | 191 | 1.6 | 4.8 | 0.00 | 0.46 | 0.46 | 46 | 1007.6 |
| 20260506234526 | 14 | 171 | 3.2 | 16.1 | 0.00 | 0.46 | 0.46 | 46 | 1007.6 |
| 20260506234026 | 14 | 258 | 1.6 | 3.2 | 0.00 | 0.46 | 0.46 | 47 | 1007.5 |
| 20260506233526 | 14 | 227 | 3.2 | 6.4 | 0.00 | 0.46 | 0.46 | 46 | 1007.5 |
| 20260506233026 | 14 | 194 | 1.6 | 4.8 | 0.00 | 0.46 | 0.46 | 46 | 1007.4 |
| 20260506232526 | 14 | 167 | 1.6 | 4.8 | 0.03 | 0.46 | 0.46 | 46 | 1007.4 |
| 20260506232026 | 14 | 163 | 3.2 | 8.0 | 0.03 | 0.46 | 0.46 | 46 | 1007.4 |
| 20260506231526 | 14 | 158 | 3.2 | 6.4 | 0.03 | 0.46 | 0.46 | 46 | 1007.3 |
| 20260506231026 | 14 | 137 | 1.6 | 6.4 | 0.05 | 0.46 | 0.46 | 46 | 1007.3 |
| 20260506230526 | 14 | 0.0 | 3.2 | 0.05 | 0.46 | 0.46 | 46 | 1007.4 | |
| 20260506230026 | 14 | 204 | 3.2 | 11.3 | 0.05 | 0.46 | 0.46 | 46 | 1007.2 |
| 20260506225525 | 14 | 161 | 1.6 | 3.2 | 0.08 | 0.46 | 0.46 | 46 | 1007.2 |
| 20260506225046 | 14 | 121 | 3.2 | 8.0 | 0.08 | 0.46 | 0.46 | 46 | 1007.2 |
| 20260506224526 | 14 | 175 | 1.6 | 4.8 | 0.08 | 0.46 | 0.46 | 46 | 1007.2 |
| 20260506224026 | 15 | 242 | 3.2 | 14.5 | 0.08 | 0.46 | 0.46 | 46 | 1007.2 |
| 20260506223526 | 15 | 196 | 1.6 | 4.8 | 0.08 | 0.46 | 0.46 | 46 | 1007.1 |
| 20260506223026 | 15 | 202 | 1.6 | 4.8 | 0.10 | 0.46 | 0.46 | 46 | 1007.1 |
| 20260506222526 | 15 | 203 | 1.6 | 4.8 | 0.08 | 0.43 | 0.43 | 46 | 1007.1 |
| 20260506222025 | 15 | 184 | 1.6 | 4.8 | 0.08 | 0.43 | 0.43 | 46 | 1007.2 |
| 20260506221545 | 15 | 218 | 1.6 | 8.0 | 0.08 | 0.43 | 0.43 | 46 | 1007.2 |
| 20260506221026 | 15 | 170 | 1.6 | 4.8 | 0.05 | 0.41 | 0.41 | 46 | 1007.3 |
| 20260506220525 | 15 | 159 | 1.6 | 6.4 | 0.05 | 0.41 | 0.41 | 46 | 1007.3 |
| 20260506220026 | 15 | 161 | 1.6 | 6.4 | 0.05 | 0.41 | 0.41 | 46 | 1007.4 |
| 20260506215525 | 15 | 185 | 1.6 | 8.0 | 0.03 | 0.38 | 0.38 | 46 | 1007.4 |
| 20260506215025 | 15 | 184 | 1.6 | 3.2 | 0.03 | 0.38 | 0.38 | 46 | 1007.4 |
| 20260506214525 | 15 | 184 | 1.6 | 4.8 | 0.03 | 0.38 | 0.38 | 46 | 1007.5 |
| 20260506214026 | 15 | 171 | 1.6 | 3.2 | 0.05 | 0.38 | 0.38 | 46 | 1007.3 |
| 20260506213526 | 15 | 205 | 3.2 | 11.3 | 0.05 | 0.38 | 0.38 | 46 | 1007.4 |
| 20260506213025 | 15 | 199 | 1.6 | 4.8 | 0.05 | 0.36 | 0.36 | 46 | 1007.7 |
| 20260506212526 | 15 | 207 | 1.6 | 4.8 | 0.08 | 0.36 | 0.36 | 46 | 1007.6 |
| 20260506212025 | 15 | 186 | 1.6 | 3.2 | 0.10 | 0.36 | 0.36 | 46 | 1007.5 |
| 20260506211546 | 15 | 179 | 3.2 | 9.7 | 0.10 | 0.36 | 0.36 | 46 | 1007.5 |
| 20260506211025 | 15 | 204 | 1.6 | 6.4 | 0.13 | 0.36 | 0.36 | 45 | 1007.5 |
| 20260506210525 | 15 | 186 | 1.6 | 4.8 | 0.13 | 0.36 | 0.36 | 45 | 1007.6 |
| 20260506210026 | 15 | 190 | 1.6 | 3.2 | 0.13 | 0.36 | 0.36 | 45 | 1007.6 |
| 20260506205526 | 15 | 209 | 1.6 | 4.8 | 0.15 | 0.36 | 0.36 | 45 | 1007.6 |
| 20260506205025 | 15 | 206 | 1.6 | 4.8 | 0.18 | 0.36 | 0.36 | 45 | 1007.7 |
| 20260506204525 | 15 | 178 | 1.6 | 3.2 | 0.18 | 0.36 | 0.36 | 45 | 1007.8 |
| 20260506204025 | 15 | 187 | 1.6 | 6.4 | 0.15 | 0.33 | 0.33 | 44 | 1007.8 |
| 20260506203526 | 15 | 182 | 3.2 | 9.7 | 0.18 | 0.33 | 0.33 | 44 | 1007.9 |
| 20260506203025 | 15 | 195 | 1.6 | 4.8 | 0.15 | 0.30 | 0.30 | 43 | 1007.9 |
| 20260506202525 | 15 | 181 | 3.2 | 8.0 | 0.15 | 0.28 | 0.28 | 43 | 1008.0 |
| 20260506202027 | 15 | 160 | 1.6 | 3.2 | 0.13 | 0.25 | 0.25 | 42 | 1007.9 |
| 20260506201527 | 15 | 144 | 1.6 | 4.8 | 0.13 | 0.25 | 0.25 | 42 | 1007.9 |
| 20260506201027 | 15 | 151 | 1.6 | 4.8 | 0.10 | 0.23 | 0.23 | 42 | 1008.0 |
| 20260506200525 | 15 | 199 | 1.6 | 6.4 | 0.10 | 0.23 | 0.23 | 41 | 1008.0 |
| 20260506200047 | 15 | 264 | 1.6 | 4.8 | 0.10 | 0.23 | 0.23 | 41 | 1008.1 |
| 20260506195527 | 15 | 272 | 1.6 | 4.8 | 0.08 | 0.20 | 0.20 | 41 | 1008.2 |
| 20260506195027 | 15 | 251 | 1.6 | 6.4 | 0.05 | 0.18 | 0.18 | 40 | 1008.2 |
| 20260506194527 | 15 | 180 | 1.6 | 6.4 | 0.05 | 0.18 | 0.18 | 40 | 1008.3 |
| 20260506194027 | 15 | 195 | 3.2 | 6.4 | 0.08 | 0.18 | 0.18 | 40 | 1008.4 |
| 20260506193528 | 15 | 172 | 4.8 | 16.1 | 0.05 | 0.15 | 0.15 | 40 | 1008.4 |
| 20260506193027 | 15 | 174 | 3.2 | 9.7 | 0.05 | 0.15 | 0.15 | 40 | 1008.4 |
| 20260506192527 | 15 | 106 | 1.6 | 4.8 | 0.03 | 0.13 | 0.13 | 40 | 1008.5 |
| 20260506192025 | 15 | 192 | 1.6 | 4.8 | 0.03 | 0.13 | 0.13 | 39 | 1008.4 |
| 20260506191527 | 15 | 188 | 3.2 | 9.7 | 0.03 | 0.13 | 0.13 | 40 | 1008.5 |
| 20260506191027 | 16 | 229 | 1.6 | 3.2 | 0.05 | 0.13 | 0.13 | 40 | 1008.6 |
| 20260506190527 | 16 | 231 | 1.6 | 3.2 | 0.05 | 0.13 | 0.13 | 39 | 1008.5 |
| 20260506190027 | 16 | 248 | 1.6 | 4.8 | 0.05 | 0.13 | 0.13 | 40 | 1008.4 |
| 20260506185527 | 16 | 278 | 1.6 | 4.8 | 0.08 | 0.13 | 0.13 | 40 | 1008.5 |
| 20260506185027 | 16 | 187 | 1.6 | 4.8 | 0.08 | 0.13 | 0.13 | 40 | 1008.4 |
| 20260506184527 | 16 | 164 | 1.6 | 3.2 | 0.08 | 0.13 | 0.13 | 39 | 1008.3 |
| 20260506184027 | 15 | 153 | 1.6 | 4.8 | 0.08 | 0.10 | 0.10 | 39 | 1008.5 |
| 20260506183527 | 15 | 170 | 1.6 | 4.8 | 0.08 | 0.10 | 0.10 | 39 | 1008.7 |
| 20260506183027 | 16 | 190 | 1.6 | 3.2 | 0.10 | 0.10 | 0.10 | 39 | 1008.7 |
| 20260506182527 | 16 | 189 | 1.6 | 3.2 | 0.10 | 0.10 | 0.10 | 40 | 1008.6 |
| 20260506182027 | 16 | 179 | 1.6 | 8.0 | 0.10 | 0.10 | 0.10 | 41 | 1008.3 |
| 20260506181525 | 16 | 177 | 3.2 | 4.8 | 0.10 | 0.10 | 0.10 | 45 | 1008.3 |
| 20260506181027 | 16 | 173 | 3.2 | 8.0 | 0.08 | 0.08 | 0.08 | 47 | 1008.4 |
| 20260506180527 | 16 | 175 | 1.6 | 4.8 | 0.08 | 0.08 | 0.08 | 48 | 1008.8 |
| 20260506180027 | 16 | 184 | 1.6 | 4.8 | 0.08 | 0.08 | 0.08 | 49 | 1008.9 |
| 20260506175527 | 16 | 175 | 3.2 | 8.0 | 0.05 | 0.05 | 0.05 | 53 | 1008.7 |
| 20260506175047 | 16 | 252 | 1.6 | 4.8 | 0.05 | 0.05 | 0.05 | 54 | 1009.1 |
| 20260506174527 | 16 | 218 | 3.2 | 8.0 | 0.05 | 0.05 | 0.05 | 57 | 1009.2 |
| 20260506174027 | 16 | 221 | 1.6 | 6.4 | 0.03 | 0.03 | 0.03 | 59 | 1009.3 |
| 20260506173527 | 16 | 181 | 1.6 | 4.8 | 0.03 | 0.03 | 0.03 | 60 | 1009.4 |
| 20260506173047 | 17 | 176 | 3.2 | 6.4 | 0.00 | 0.00 | 0.00 | 60 | 1009.6 |
| 20260506172527 | 17 | 171 | 1.6 | 6.4 | 0.00 | 0.00 | 0.00 | 60 | 1009.8 |
| 20260506172027 | 17 | 184 | 3.2 | 11.3 | 0.00 | 0.00 | 0.00 | 59 | 1010.0 |
| 20260506171527 | 18 | 168 | 3.2 | 12.9 | 0.00 | 0.00 | 0.00 | 58 | 1009.9 |
| 20260506171027 | 18 | 161 | 3.2 | 6.4 | 0.00 | 0.00 | 0.00 | 57 | 1009.8 |
| 20260506170527 | 18 | 191 | 3.2 | 8.0 | 0.00 | 0.00 | 0.00 | 57 | 1009.8 |
| 20260506170038 | 18 | 202 | 3.2 | 6.4 | 0.00 | 0.00 | 0.00 | 55 | 1009.6 |
| 20260506165607 | 19 | 193 | 4.8 | 11.3 | 0.00 | 0.00 | 0.00 | 54 | 1009.6 |
| 20260506165047 | 20 | 219 | 3.2 | 8.0 | 0.00 | 0.00 | 0.00 | 53 | 1009.5 |
| 20260506164608 | 20 | 183 | 4.8 | 9.7 | 0.00 | 0.00 | 0.00 | 52 | 1009.4 |
| 20260506164027 | 20 | 165 | 4.8 | 12.9 | 0.00 | 0.00 | 0.00 | 52 | 1009.4 |
| 20260506163528 | 20 | 174 | 6.4 | 17.7 | 0.00 | 0.00 | 0.00 | 52 | 1009.3 |
| 20260506163027 | 20 | 154 | 4.8 | 8.0 | 0.00 | 0.00 | 0.00 | 52 | 1009.6 |
| 20260506162528 | 20 | 186 | 4.8 | 11.3 | 0.00 | 0.00 | 0.00 | 52 | 1009.6 |
| 20260506162027 | 20 | 180 | 4.8 | 16.1 | 0.00 | 0.00 | 0.00 | 52 | 1009.8 |
| 20260506161527 | 20 | 180 | 4.8 | 9.7 | 0.00 | 0.00 | 0.00 | 52 | 1009.9 |
| 20260506161027 | 20 | 160 | 4.8 | 11.3 | 0.00 | 0.00 | 0.00 | 53 | 1009.9 |
| 20260506160547 | 19 | 181 | 3.2 | 6.4 | 0.00 | 0.00 | 0.00 | 53 | 1010.0 |
| 20260506160027 | 19 | 191 | 3.2 | 6.4 | 0.00 | 0.00 | 0.00 | 53 | 1010.1 |
| 20260506155547 | 19 | 142 | 1.6 | 3.2 | 0.00 | 0.00 | 0.00 | 53 | 1010.2 |
| 20260506155026 | 19 | 208 | 3.2 | 9.7 | 0.00 | 0.00 | 0.00 | 53 | 1010.2 |
| 20260506154527 | 19 | 220 | 3.2 | 9.7 | 0.00 | 0.00 | 0.00 | 53 | 1010.2 |
| 20260506154027 | 19 | 203 | 3.2 | 6.4 | 0.00 | 0.00 | 0.00 | 54 | 1010.3 |
| 20260506153527 | 19 | 146 | 3.2 | 6.4 | 0.00 | 0.00 | 0.00 | 53 | 1010.3 |
| 20260506153027 | 19 | 205 | 1.6 | 4.8 | 0.00 | 0.00 | 0.00 | 53 | 1010.3 |
| 20260506152547 | 18 | 192 | 3.2 | 6.4 | 0.00 | 0.00 | 0.00 | 53 | 1010.3 |
| 20260506152027 | 18 | 174 | 3.2 | 9.7 | 0.00 | 0.00 | 0.00 | 54 | 1010.4 |
| 20260506151547 | 18 | 171 | 3.2 | 9.7 | 0.00 | 0.00 | 0.00 | 53 | 1010.5 |
| 20260506151027 | 18 | 145 | 1.6 | 4.8 | 0.00 | 0.00 | 0.00 | 54 | 1010.5 |
| 20260506150527 | 18 | 246 | 3.2 | 4.8 | 0.00 | 0.00 | 0.00 | 54 | 1010.6 |
| 20260506150027 | 18 | 223 | 1.6 | 12.9 | 0.00 | 0.00 | 0.00 | 54 | 1010.7 |
| 20260506145527 | 18 | 225 | 1.6 | 6.4 | 0.00 | 0.00 | 0.00 | 53 | 1010.6 |
| 20260506145027 | 18 | 173 | 3.2 | 8.0 | 0.00 | 0.00 | 0.00 | 54 | 1010.5 |
| 20260506144547 | 18 | 177 | 1.6 | 4.8 | 0.00 | 0.00 | 0.00 | 54 | 1010.6 |
| 20260506144026 | 18 | 159 | 1.6 | 4.8 | 0.00 | 0.00 | 0.00 | 54 | 1010.8 |
| 20260506143526 | 18 | 231 | 1.6 | 6.4 | 0.00 | 0.00 | 0.00 | 54 | 1010.8 |
| 20260506143026 | 17 | 191 | 4.8 | 11.3 | 0.00 | 0.00 | 0.00 | 54 | 1010.7 |
| 20260506142526 | 17 | 183 | 3.2 | 6.4 | 0.00 | 0.00 | 0.00 | 54 | 1010.8 |
| 20260506142027 | 17 | 207 | 3.2 | 8.0 | 0.00 | 0.00 | 0.00 | 54 | 1010.7 |
| 20260506141527 | 17 | 189 | 4.8 | 14.5 | 0.00 | 0.00 | 0.00 | 54 | 1010.7 |
| 20260506141027 | 18 | 253 | 6.4 | 16.1 | 0.00 | 0.00 | 0.00 | 53 | 1010.9 |
| 20260506140527 | 18 | 197 | 1.6 | 6.4 | 0.00 | 0.00 | 0.00 | 54 | 1010.8 |
| 20260506140027 | 17 | 196 | 3.2 | 8.0 | 0.00 | 0.00 | 0.00 | 53 | 1010.7 |
| 20260506135527 | 17 | 185 | 3.2 | 8.0 | 0.00 | 0.00 | 0.00 | 53 | 1010.6 |
| 20260506135026 | 17 | 189 | 4.8 | 9.7 | 0.00 | 0.00 | 0.00 | 53 | 1010.7 |
| 20260506134527 | 17 | 179 | 3.2 | 12.9 | 0.00 | 0.00 | 0.00 | 53 | 1010.5 |
| 20260506134027 | 17 | 209 | 3.2 | 8.0 | 0.00 | 0.00 | 0.00 | 53 | 1010.7 |
| 20260506133527 | 17 | 186 | 1.6 | 4.8 | 0.00 | 0.00 | 0.00 | 53 | 1010.4 |
| 20260506133027 | 17 | 160 | 1.6 | 6.4 | 0.00 | 0.00 | 0.00 | 52 | 1010.6 |
| 20260506132527 | 17 | 178 | 1.6 | 8.0 | 0.00 | 0.00 | 0.00 | 52 | 1010.6 |
| 20260506132027 | 17 | 186 | 3.2 | 8.0 | 0.00 | 0.00 | 0.00 | 52 | 1010.7 |
| 20260506131527 | 17 | 177 | 1.6 | 4.8 | 0.00 | 0.00 | 0.00 | 53 | 1010.7 |
| 20260506131027 | 17 | 183 | 3.2 | 6.4 | 0.00 | 0.00 | 0.00 | 53 | 1010.7 |
| 20260506130527 | 17 | 184 | 3.2 | 8.0 | 0.00 | 0.00 | 0.00 | 52 | 1010.6 |
| 20260506130027 | 16 | 179 | 3.2 | 11.3 | 0.00 | 0.00 | 0.00 | 52 | 1010.8 |
| 20260506125527 | 16 | 176 | 3.2 | 8.0 | 0.00 | 0.00 | 0.00 | 52 | 1010.8 |
| 20260506125027 | 16 | 174 | 1.6 | 8.0 | 0.00 | 0.00 | 0.00 | 52 | 1011.0 |
| 20260506124527 | 16 | 166 | 3.2 | 6.4 | 0.00 | 0.00 | 0.00 | 52 | 1010.9 |
| 20260506124026 | 16 | 197 | 1.6 | 9.7 | 0.00 | 0.00 | 0.00 | 52 | 1011.1 |
| 20260506123526 | 16 | 193 | 3.2 | 6.4 | 0.00 | 0.00 | 0.00 | 52 | 1011.2 |
| 20260506123026 | 16 | 223 | 3.2 | 9.7 | 0.00 | 0.00 | 0.00 | 52 | 1011.2 |
| 20260506122526 | 16 | 122 | 1.6 | 11.3 | 0.00 | 0.00 | 0.00 | 53 | 1011.3 |
| 20260506122047 | 16 | 189 | 3.2 | 6.4 | 0.00 | 0.00 | 0.00 | 52 | 1011.0 |
| 20260506121527 | 16 | 162 | 1.6 | 8.0 | 0.00 | 0.00 | 0.00 | 52 | 1010.8 |
| 20260506121027 | 16 | 191 | 3.2 | 9.7 | 0.00 | 0.00 | 0.00 | 52 | 1011.1 |
| 20260506120526 | 16 | 210 | 3.2 | 6.4 | 0.00 | 0.00 | 0.00 | 51 | 1011.1 |
| 20260506120027 | 16 | 229 | 3.2 | 11.3 | 0.00 | 0.00 | 0.00 | 51 | 1010.8 |
| 20260506115526 | 16 | 196 | 3.2 | 8.0 | 0.00 | 0.00 | 0.00 | 51 | 1011.0 |
| 20260506115026 | 16 | 188 | 3.2 | 8.0 | 0.00 | 0.00 | 0.00 | 51 | 1011.1 |
| 20260506114527 | 16 | 167 | 3.2 | 8.0 | 0.00 | 0.00 | 0.00 | 50 | 1011.3 |
| 20260506114046 | 16 | 259 | 3.2 | 8.0 | 0.00 | 0.00 | 0.00 | 50 | 1011.2 |
| 20260506113546 | 16 | 184 | 3.2 | 12.9 | 0.00 | 0.00 | 0.00 | 49 | 1011.1 |
| 20260506113027 | 16 | 184 | 3.2 | 6.4 | 0.00 | 0.00 | 0.00 | 48 | 1011.0 |
| 20260506112526 | 16 | 172 | 3.2 | 8.0 | 0.00 | 0.00 | 0.00 | 47 | 1011.0 |
| 20260506112026 | 15 | 178 | 3.2 | 14.5 | 0.00 | 0.00 | 0.00 | 47 | 1010.9 |
| 20260506111607 | 15 | 160 | 1.6 | 6.4 | 0.00 | 0.00 | 0.00 | 46 | 1011.5 |
| 20260506111026 | 15 | 199 | 3.2 | 11.3 | 0.00 | 0.00 | 0.00 | 45 | 1011.5 |
| 20260506110526 | 15 | 232 | 1.6 | 4.8 | 0.00 | 0.00 | 0.00 | 45 | 1011.5 |
| 20260506110026 | 15 | 285 | 1.6 | 4.8 | 0.00 | 0.00 | 0.00 | 45 | 1011.5 |
| 20260506105526 | 15 | 210 | 3.2 | 11.3 | 0.00 | 0.00 | 0.00 | 45 | 1011.4 |
| 20260506105026 | 15 | 0.0 | 4.8 | 0.00 | 0.00 | 0.00 | 44 | 1011.4 | |
| 20260506104546 | 14 | 183 | 1.6 | 4.8 | 0.00 | 0.00 | 0.00 | 44 | 1011.4 |
| 20260506104046 | 14 | 0.0 | 3.2 | 0.00 | 0.00 | 0.00 | 44 | 1011.4 | |
| 20260506103526 | 14 | 181 | 1.6 | 4.8 | 0.00 | 0.00 | 0.00 | 44 | 1011.3 |
| 20260506103047 | 14 | 184 | 1.6 | 3.2 | 0.00 | 0.00 | 0.00 | 45 | 1011.1 |
| 20260506102526 | 14 | 178 | 1.6 | 4.8 | 0.00 | 0.00 | 0.00 | 45 | 1011.2 |
| 20260506102026 | 13 | 187 | 1.6 | 6.4 | 0.00 | 0.00 | 0.00 | 45 | 1011.0 |
| 20260506101526 | 13 | 217 | 1.6 | 6.4 | 0.00 | 0.00 | 0.00 | 45 | 1011.1 |
| 20260506101026 | 13 | 200 | 1.6 | 4.8 | 0.00 | 0.00 | 0.00 | 47 | 1011.1 |
| 20260506100526 | 13 | 0.0 | 0.0 | 0.00 | 0.00 | 0.00 | 47 | 1011.1 | |
| 20260506100026 | 13 | 0.0 | 0.0 | 0.00 | 0.00 | 0.00 | 47 | 1010.9 | |
| 20260506095526 | 13 | 0.0 | 0.0 | 0.00 | 0.00 | 0.00 | 47 | 1011.0 | |
| 20260506095026 | 13 | 0.0 | 0.0 | 0.00 | 0.00 | 0.00 | 48 | 1011.1 | |
| 20260506094526 | 13 | 0.0 | 1.6 | 0.00 | 0.00 | 0.00 | 47 | 1011.2 | |
| 20260506094026 | 13 | 240 | 1.6 | 6.4 | 0.00 | 0.00 | 0.00 | 47 | 1011.2 |
| 20260506093526 | 13 | 0.0 | 4.8 | 0.00 | 0.00 | 0.00 | 47 | 1011.1 | |
| 20260506093046 | 13 | 0.0 | 4.8 | 0.00 | 0.00 | 0.00 | 47 | 1011.1 | |
| 20260506092526 | 13 | 282 | 1.6 | 9.7 | 0.00 | 0.00 | 0.00 | 47 | 1011.0 |
| 20260506092026 | 13 | 0.0 | 3.2 | 0.00 | 0.00 | 0.00 | 47 | 1011.1 | |
| 20260506091526 | 13 | 0.0 | 1.6 | 0.00 | 0.00 | 0.00 | 47 | 1011.2 | |
| 20260506091026 | 13 | 250 | 1.6 | 6.4 | 0.00 | 0.00 | 0.00 | 47 | 1011.2 |
| 20260506090526 | 13 | 274 | 1.6 | 6.4 | 0.00 | 0.00 | 0.00 | 47 | 1011.2 |
| 20260506090026 | 13 | 229 | 1.6 | 6.4 | 0.00 | 0.00 | 0.00 | 48 | 1011.2 |
| 20260506085526 | 13 | 170 | 1.6 | 6.4 | 0.00 | 0.00 | 0.00 | 48 | 1011.1 |
| 20260506085026 | 13 | 236 | 1.6 | 8.0 | 0.00 | 0.00 | 0.00 | 48 | 1011.2 |
| 20260506084526 | 13 | 132 | 1.6 | 4.8 | 0.00 | 0.00 | 0.00 | 48 | 1011.3 |
| 20260506084026 | 13 | 0.0 | 1.6 | 0.00 | 0.00 | 0.00 | 49 | 1011.3 | |
| 20260506083526 | 13 | 0.0 | 4.8 | 0.00 | 0.00 | 0.00 | 50 | 1011.3 | |
| 20260506083046 | 13 | 0.0 | 3.2 | 0.00 | 0.00 | 0.00 | 50 | 1011.3 | |
| 20260506082526 | 13 | 0.0 | 3.2 | 0.00 | 0.00 | 0.00 | 50 | 1011.4 | |
| 20260506082026 | 13 | 219 | 1.6 | 4.8 | 0.00 | 0.00 | 0.00 | 51 | 1011.4 |
| 20260506081526 | 13 | 240 | 1.6 | 8.0 | 0.00 | 0.00 | 0.00 | 51 | 1011.5 |
| 20260506081026 | 13 | 128 | 1.6 | 3.2 | 0.00 | 0.00 | 0.00 | 52 | 1011.6 |
| 20260506080526 | 13 | 177 | 1.6 | 8.0 | 0.00 | 0.00 | 0.00 | 52 | 1011.5 |
| 20260506073046 | 13 | 238 | 1.6 | 6.4 | 0.00 | 0.00 | 0.00 | 55 | 1011.4 |
| 20260506072525 | 13 | 0.0 | 3.2 | 0.00 | 0.00 | 0.00 | 56 | 1011.6 | |
| 20260506072026 | 13 | 291 | 1.6 | 4.8 | 0.00 | 0.00 | 0.00 | 58 | 1011.5 |
| 20260506071526 | 14 | 0.0 | 1.6 | 0.00 | 0.00 | 0.00 | 59 | 1011.4 | |
| 20260506071046 | 14 | 0.0 | 3.2 | 0.00 | 0.00 | 0.00 | 61 | 1011.4 | |
| 20260506070526 | 14 | 300 | 1.6 | 6.4 | 0.00 | 0.00 | 0.00 | 61 | 1011.6 |